Deming, NM (88030)

8:08 PM MDT on August 03, 2015 (GMT -0600)
Deming Municipal | | Change Station
CLOSE
Current Station
Airport
Location: Deming,
Elevation: 4311 ft
Nearby Weather Stations

Elev 4311 ft 32.26 °N, 107.72 °W | Updated 15 minutes ago

Partly Cloudy
Partly Cloudy
86 °F
Feels Like 86 °F
N
9
Wind Variable Wind from South

Today
High -- | Low -- °F
--% Chance of Precip.
Yesterday
High -- | Low -- °F
Precip. -- in
6:27 AM 8:06 PM
Waning Gibbous, 82% visible
Pressure 29.78 in
Visibility 10.0 miles
Clouds Few 11000 ft
Dew Point 50 °F
Humidity 29%
Rainfall 0.02 in
Snow Depth Not available.
UV 0 out of 12
Pollen 2.70 out of 12
Air Quality Not available.
Flu Activity Not available.
METAR KDMN 040153Z AUTO 17008KT 10SM FEW110 30/10 A3002 RMK AO2 LTG DSNT S SLP082 T03000100 $

More Conditions Fewer Conditions

Pressure 29.78 in
Visibility 10.0 miles
Clouds Few 11000 ft
Dew Point 50 °F
Humidity 29%
Rainfall 0.02 in
Snow Depth Not available.
UV 0 out of 12
Pollen 2.70 out of 12
Air Quality Not available.
Flu Activity Not available.
METAR KDMN 040153Z AUTO 17008KT 10SM FEW110 30/10 A3002 RMK AO2 LTG DSNT S SLP082 T03000100 $

More Conditions Fewer Conditions

Nowcast | as of 7:20 PM MDT on August 3, 2015

At 716 PM MDT...rain showers and thunderstorms were continuing to slowly move southeast through the Borderland. The majority of the activity was located on the border between Grant and Sierra counties in New Mexico and in southern central Luna County in New Mexico. These storms are capable of producing minor flooding...pea sized hail and wind gusts up to 30 mph. Rain accumulations with these storms is expected to be half an inch to an inch. These storms will continue to track southeast for the next several hours as more rain showers and thunderstorms develop during the rest of the evening hours. For more information check out our website at www.Srh.NOAA.Gov/epz/ or follow US on facebook and twitter.

×

10-Day Weather Forecast

×

Almanac

Astronomy

Aug. 03, 2015 Rise Set
Actual Time
Civil Twilight
Nautical Twilight
Astronomical Twilight
Moon
Length of Visible Light
Length of Day
Tomorrow will be .
, % of the Moon is Illuminated

Today's Extremes

State Highs State Lows

Community

WunderPhotos

Upload Photos

1,843,825 photos uploaded!

WunderBlogs® & News

Nearby

Air Quality

  Air Quality AQ Index Pollutant
Not available.

Snow Depth

Station Depth Elevation

Earthquake Activity

City Distance Mag. Time & Date
Minimum magnitude displayed is 2.5.

Coastal Water Temperatures

Place Temperature

Stations

Nearby Weather Stations

Station Location Temp. Windchill Dew Point Humidity Wind Precip. Elev Updated Type